松山國際航空站 - ATIS

METAR RCSS 200630Z 09020KT 050V110 9999 FEW015 BKN038 BKN100 18/13 Q1019 WS R10 NOSIG RMK A3011=

站台狀態:Online
最後更新:2022-01-20 22:00:02